sensor_id;sensor_type;location;lat;lon;timestamp;pressure;altitude;pressure_sealevel;temperature;humidity
10706;BME280;5404;42.656;23.336;2023-04-10T00:00:14;94956.31;;;8.30;100.00
10706;BME280;5404;42.656;23.336;2023-04-10T00:02:39;94947.81;;;8.27;100.00
10706;BME280;5404;42.656;23.336;2023-04-10T00:05:06;94948.63;;;8.28;100.00
10706;BME280;5404;42.656;23.336;2023-04-10T00:07:32;94936.69;;;8.25;100.00
10706;BME280;5404;42.656;23.336;2023-04-10T00:09:58;94935.09;;;8.24;100.00
10706;BME280;5404;42.656;23.336;2023-04-10T00:12:23;94928.47;;;8.22;100.00
10706;BME280;5404;42.656;23.336;2023-04-10T00:14:49;94922.63;;;8.20;100.00
10706;BME280;5404;42.656;23.336;2023-04-10T00:17:14;94922.69;;;8.15;100.00
10706;BME280;5404;42.656;23.336;2023-04-10T00:19:39;94912.59;;;8.12;100.00
10706;BME280;5404;42.656;23.336;2023-04-10T00:22:05;94918.97;;;8.11;100.00
10706;BME280;5404;42.656;23.336;2023-04-10T00:24:30;94907.28;;;8.12;100.00
10706;BME280;5404;42.656;23.336;2023-04-10T00:26:55;94907.84;;;8.09;100.00
10706;BME280;5404;42.656;23.336;2023-04-10T00:29:21;94903.84;;;8.11;100.00
10706;BME280;5404;42.656;23.336;2023-04-10T00:31:47;94903.56;;;8.13;100.00
10706;BME280;5404;42.656;23.336;2023-04-10T00:34:13;94901.44;;;8.15;100.00
10706;BME280;5404;42.656;23.336;2023-04-10T00:36:38;94904.34;;;8.18;100.00
10706;BME280;5404;42.656;23.336;2023-04-10T00:39:03;94907.25;;;8.17;100.00
10706;BME280;5404;42.656;23.336;2023-04-10T00:41:28;94897.72;;;8.16;100.00
10706;BME280;5404;42.656;23.336;2023-04-10T00:43:55;94905.13;;;8.19;100.00
10706;BME280;5404;42.656;23.336;2023-04-10T00:46:21;94896.38;;;8.18;100.00
10706;BME280;5404;42.656;23.336;2023-04-10T00:48:46;94898.19;;;8.28;100.00
10706;BME280;5404;42.656;23.336;2023-04-10T00:51:12;94897.09;;;8.29;100.00
10706;BME280;5404;42.656;23.336;2023-04-10T00:53:37;94901.31;;;8.35;100.00
10706;BME280;5404;42.656;23.336;2023-04-10T00:56:02;94890.13;;;8.38;100.00
10706;BME280;5404;42.656;23.336;2023-04-10T00:58:28;94890.38;;;8.42;100.00
10706;BME280;5404;42.656;23.336;2023-04-10T01:00:54;94899.13;;;8.42;100.00
10706;BME280;5404;42.656;23.336;2023-04-10T01:03:20;94887.47;;;8.38;100.00
10706;BME280;5404;42.656;23.336;2023-04-10T01:08:11;94883.25;;;8.37;100.00
10706;BME280;5404;42.656;23.336;2023-04-10T01:13:10;94888.84;;;8.36;100.00
10706;BME280;5404;42.656;23.336;2023-04-10T01:18:26;94882.97;;;8.00;100.00
10706;BME280;5404;42.656;23.336;2023-04-10T01:20:53;94892.66;;;7.76;100.00
10706;BME280;5404;42.656;23.336;2023-04-10T01:30:59;94890.72;;;7.91;100.00
10706;BME280;5404;42.656;23.336;2023-04-10T01:33:46;94889.63;;;7.97;100.00
10706;BME280;5404;42.656;23.336;2023-04-10T01:36:10;94886.94;;;8.02;100.00
10706;BME280;5404;42.656;23.336;2023-04-10T01:38:37;94889.03;;;8.05;100.00
10706;BME280;5404;42.656;23.336;2023-04-10T01:41:03;94882.38;;;8.08;100.00
10706;BME280;5404;42.656;23.336;2023-04-10T01:43:30;94889.78;;;8.11;100.00
10706;BME280;5404;42.656;23.336;2023-04-10T01:45:56;94885.00;;;8.13;100.00
10706;BME280;5404;42.656;23.336;2023-04-10T01:48:22;94893.75;;;8.13;100.00
10706;BME280;5404;42.656;23.336;2023-04-10T01:50:49;94889.75;;;8.16;100.00
10706;BME280;5404;42.656;23.336;2023-04-10T01:53:16;94890.78;;;8.20;100.00
10706;BME280;5404;42.656;23.336;2023-04-10T01:55:41;94892.88;;;8.23;100.00
10706;BME280;5404;42.656;23.336;2023-04-10T01:58:07;94888.66;;;8.27;100.00
10706;BME280;5404;42.656;23.336;2023-04-10T02:00:39;94886.75;;;8.27;100.00
10706;BME280;5404;42.656;23.336;2023-04-10T02:03:07;94891.06;;;8.23;100.00
10706;BME280;5404;42.656;23.336;2023-04-10T02:05:37;94887.03;;;8.26;100.00
10706;BME280;5404;42.656;23.336;2023-04-10T02:08:05;94889.44;;;8.22;100.00
10706;BME280;5404;42.656;23.336;2023-04-10T02:10:36;94883.09;;;8.23;100.00
10706;BME280;5404;42.656;23.336;2023-04-10T02:13:06;94878.03;;;8.22;100.00
10706;BME280;5404;42.656;23.336;2023-04-10T02:15:31;94882.84;;;8.20;100.00
10706;BME280;5404;42.656;23.336;2023-04-10T02:17:59;94877.53;;;8.20;100.00
10706;BME280;5404;42.656;23.336;2023-04-10T02:20:24;94877.53;;;8.20;100.00
10706;BME280;5404;42.656;23.336;2023-04-10T02:22:50;94870.09;;;8.17;100.00
10706;BME280;5404;42.656;23.336;2023-04-10T02:25:17;94875.69;;;8.15;100.00
10706;BME280;5404;42.656;23.336;2023-04-10T02:27:42;94871.69;;;8.18;100.00
10706;BME280;5404;42.656;23.336;2023-04-10T02:30:08;94864.00;;;8.16;100.00
10706;BME280;5404;42.656;23.336;2023-04-10T02:32:34;94866.66;;;8.16;100.00
10706;BME280;5404;42.656;23.336;2023-04-10T02:35:00;94860.78;;;8.24;100.00
10706;BME280;5404;42.656;23.336;2023-04-10T02:37:28;94855.19;;;8.26;100.00
10706;BME280;5404;42.656;23.336;2023-04-10T02:39:53;94854.91;;;8.27;100.00
10706;BME280;5404;42.656;23.336;2023-04-10T02:42:19;94844.84;;;8.24;100.00
10706;BME280;5404;42.656;23.336;2023-04-10T02:44:44;94843.53;;;8.27;100.00
10706;BME280;5404;42.656;23.336;2023-04-10T02:47:10;94841.41;;;8.24;100.00
10706;BME280;5404;42.656;23.336;2023-04-10T02:49:35;94832.38;;;8.25;100.00
10706;BME280;5404;42.656;23.336;2023-04-10T02:52:01;94834.25;;;8.19;100.00
10706;BME280;5404;42.656;23.336;2023-04-10T02:54:26;94838.75;;;8.19;100.00
10706;BME280;5404;42.656;23.336;2023-04-10T02:56:51;94833.97;;;8.26;100.00
10706;BME280;5404;42.656;23.336;2023-04-10T02:59:17;94841.34;;;8.29;100.00
10706;BME280;5404;42.656;23.336;2023-04-10T03:01:42;94834.75;;;8.27;100.00
10706;BME280;5404;42.656;23.336;2023-04-10T03:04:07;94831.84;;;8.23;100.00
10706;BME280;5404;42.656;23.336;2023-04-10T03:06:33;94836.63;;;8.21;100.00
10706;BME280;5404;42.656;23.336;2023-04-10T03:08:58;94831.66;;;8.14;100.00
10706;BME280;5404;42.656;23.336;2023-04-10T03:11:23;94831.13;;;8.12;100.00
10706;BME280;5404;42.656;23.336;2023-04-10T03:13:49;94837.00;;;8.09;100.00
10706;BME280;5404;42.656;23.336;2023-04-10T03:16:14;94844.47;;;8.02;100.00
10706;BME280;5404;42.656;23.336;2023-04-10T03:18:41;94839.44;;;8.01;100.00
10706;BME280;5404;42.656;23.336;2023-04-10T03:21:06;94844.25;;;7.99;100.00
10706;BME280;5404;42.656;23.336;2023-04-10T03:23:32;94837.63;;;7.96;100.00
10706;BME280;5404;42.656;23.336;2023-04-10T03:25:57;94837.91;;;7.95;100.00
10706;BME280;5404;42.656;23.336;2023-04-10T03:28:22;94841.91;;;7.92;100.00
10706;BME280;5404;42.656;23.336;2023-04-10T03:30:50;94841.66;;;7.89;100.00
10706;BME280;5404;42.656;23.336;2023-04-10T03:33:16;94844.34;;;7.84;100.00
10706;BME280;5404;42.656;23.336;2023-04-10T03:35:41;94846.53;;;7.77;100.00
10706;BME280;5404;42.656;23.336;2023-04-10T03:38:07;94846.28;;;7.73;100.00
10706;BME280;5404;42.656;23.336;2023-04-10T03:40:32;94852.66;;;7.67;100.00
10706;BME280;5404;42.656;23.336;2023-04-10T03:42:58;94853.28;;;7.54;100.00
10706;BME280;5404;42.656;23.336;2023-04-10T03:45:24;94857.00;;;7.48;100.00
10706;BME280;5404;42.656;23.336;2023-04-10T03:47:50;94863.69;;;7.41;100.00
10706;BME280;5404;42.656;23.336;2023-04-10T03:50:16;94870.59;;;7.37;100.00
10706;BME280;5404;42.656;23.336;2023-04-10T03:52:41;94867.69;;;7.33;100.00
10706;BME280;5404;42.656;23.336;2023-04-10T03:55:06;94872.47;;;7.31;100.00
10706;BME280;5404;42.656;23.336;2023-04-10T03:57:32;94873.28;;;7.32;100.00
10706;BME280;5404;42.656;23.336;2023-04-10T03:59:57;94880.16;;;7.38;100.00
10706;BME280;5404;42.656;23.336;2023-04-10T04:02:22;94878.28;;;7.38;100.00
10706;BME280;5404;42.656;23.336;2023-04-10T04:04:47;94886.47;;;7.42;100.00
10706;BME280;5404;42.656;23.336;2023-04-10T04:07:13;94897.06;;;7.47;100.00
10706;BME280;5404;42.656;23.336;2023-04-10T04:09:38;94891.22;;;7.50;100.00
10706;BME280;5404;42.656;23.336;2023-04-10T04:12:05;94891.72;;;7.52;100.00
10706;BME280;5404;42.656;23.336;2023-04-10T04:14:31;94903.41;;;7.51;100.00
10706;BME280;5404;42.656;23.336;2023-04-10T04:16:56;94902.84;;;7.54;100.00
10706;BME280;5404;42.656;23.336;2023-04-10T04:19:21;94901.53;;;7.56;100.00
10706;BME280;5404;42.656;23.336;2023-04-10T04:21:47;94902.06;;;7.58;100.00
10706;BME280;5404;42.656;23.336;2023-04-10T04:24:12;94900.69;;;7.61;100.00
10706;BME280;5404;42.656;23.336;2023-04-10T04:26:37;94905.97;;;7.66;100.00
10706;BME280;5404;42.656;23.336;2023-04-10T04:29:03;94906.22;;;7.69;100.00
10706;BME280;5404;42.656;23.336;2023-04-10T04:31:28;94899.03;;;7.75;100.00
10706;BME280;5404;42.656;23.336;2023-04-10T04:33:56;94908.03;;;7.79;100.00
10706;BME280;5404;42.656;23.336;2023-04-10T04:36:22;94907.50;;;7.82;100.00
10706;BME280;5404;42.656;23.336;2023-04-10T04:38:47;94908.22;;;7.92;100.00
10706;BME280;5404;42.656;23.336;2023-04-10T04:41:12;94909.00;;;7.98;100.00
10706;BME280;5404;42.656;23.336;2023-04-10T04:43:37;94900.97;;;8.08;100.00
10706;BME280;5404;42.656;23.336;2023-04-10T04:46:03;94906.47;;;8.16;100.00
10706;BME280;5404;42.656;23.336;2023-04-10T04:48:28;94904.56;;;8.27;100.00
10706;BME280;5404;42.656;23.336;2023-04-10T04:50:53;94907.19;;;8.32;100.00
10706;BME280;5404;42.656;23.336;2023-04-10T04:53:21;94901.59;;;8.34;100.00
10706;BME280;5404;42.656;23.336;2023-04-10T04:55:46;94911.69;;;8.32;100.00
10706;BME280;5404;42.656;23.336;2023-04-10T04:58:11;94908.25;;;8.31;100.00
10706;BME280;5404;42.656;23.336;2023-04-10T05:00:36;94906.06;;;8.38;100.00
10706;BME280;5404;42.656;23.336;2023-04-10T05:03:02;94910.38;;;8.29;100.00
10706;BME280;5404;42.656;23.336;2023-04-10T05:05:27;94918.38;;;8.19;100.00
10706;BME280;5404;42.656;23.336;2023-04-10T05:07:52;94918.47;;;8.09;100.00
10706;BME280;5404;42.656;23.336;2023-04-10T05:10:18;94917.16;;;8.01;100.00
10706;BME280;5404;42.656;23.336;2023-04-10T05:12:43;94917.69;;;8.03;100.00
10706;BME280;5404;42.656;23.336;2023-04-10T05:15:08;94918.84;;;7.92;100.00
10706;BME280;5404;42.656;23.336;2023-04-10T05:17:34;94918.03;;;7.92;100.00
10706;BME280;5404;42.656;23.336;2023-04-10T05:20:00;94933.97;;;7.87;100.00
10706;BME280;5404;42.656;23.336;2023-04-10T05:22:25;94929.19;;;7.89;100.00
10706;BME280;5404;42.656;23.336;2023-04-10T05:24:51;94932.09;;;7.92;100.00
10706;BME280;5404;42.656;23.336;2023-04-10T05:27:17;94927.56;;;7.98;100.00
10706;BME280;5404;42.656;23.336;2023-04-10T05:29:42;94933.16;;;7.91;100.00
10706;BME280;5404;42.656;23.336;2023-04-10T05:32:07;94919.09;;;7.96;100.00
10706;BME280;5404;42.656;23.336;2023-04-10T05:34:32;94920.56;;;8.12;100.00
10706;BME280;5404;42.656;23.336;2023-04-10T05:36:58;94922.88;;;8.29;100.00
10706;BME280;5404;42.656;23.336;2023-04-10T05:39:23;94919.56;;;8.42;100.00
10706;BME280;5404;42.656;23.336;2023-04-10T05:41:48;94917.06;;;8.55;100.00
10706;BME280;5404;42.656;23.336;2023-04-10T05:44:14;94914.78;;;8.72;100.00
10706;BME280;5404;42.656;23.336;2023-04-10T05:46:39;94907.75;;;8.86;100.00
10706;BME280;5404;42.656;23.336;2023-04-10T05:49:04;94918.50;;;9.00;100.00
10706;BME280;5404;42.656;23.336;2023-04-10T05:51:30;94922.38;;;9.12;100.00
10706;BME280;5404;42.656;23.336;2023-04-10T05:53:55;94917.41;;;9.29;100.00
10706;BME280;5404;42.656;23.336;2023-04-10T05:56:21;94900.75;;;9.42;100.00
10706;BME280;5404;42.656;23.336;2023-04-10T05:58:46;94900.72;;;9.48;100.00
10706;BME280;5404;42.656;23.336;2023-04-10T06:01:11;94913.25;;;9.66;100.00
10706;BME280;5404;42.656;23.336;2023-04-10T06:03:37;94908.66;;;9.71;100.00
10706;BME280;5404;42.656;23.336;2023-04-10T06:06:03;94914.22;;;9.75;100.00
10706;BME280;5404;42.656;23.336;2023-04-10T06:08:28;94905.06;;;9.81;100.00
10706;BME280;5404;42.656;23.336;2023-04-10T06:10:53;94911.91;;;9.87;100.00
10706;BME280;5404;42.656;23.336;2023-04-10T06:13:19;94910.59;;;9.84;100.00
10706;BME280;5404;42.656;23.336;2023-04-10T06:15:44;94903.94;;;9.87;100.00
10706;BME280;5404;42.656;23.336;2023-04-10T06:18:09;94909.13;;;9.97;100.00
10706;BME280;5404;42.656;23.336;2023-04-10T06:20:35;94900.84;;;9.98;100.00
10706;BME280;5404;42.656;23.336;2023-04-10T06:23:01;94896.69;;;10.11;100.00
10706;BME280;5404;42.656;23.336;2023-04-10T06:25:26;94898.50;;;10.15;100.00
10706;BME280;5404;42.656;23.336;2023-04-10T06:27:51;94899.72;;;10.23;100.00
10706;BME280;5404;42.656;23.336;2023-04-10T06:30:17;94902.84;;;10.43;100.00
10706;BME280;5404;42.656;23.336;2023-04-10T06:32:42;94901.19;;;10.47;100.00
10706;BME280;5404;42.656;23.336;2023-04-10T06:35:07;94899.69;;;10.41;100.00
10706;BME280;5404;42.656;23.336;2023-04-10T06:37:33;94891.13;;;10.44;100.00
10706;BME280;5404;42.656;23.336;2023-04-10T06:40:05;94897.91;;;10.37;100.00
10706;BME280;5404;42.656;23.336;2023-04-10T06:42:31;94891.91;;;10.45;100.00
10706;BME280;5404;42.656;23.336;2023-04-10T06:44:56;94897.75;;;10.47;100.00
10706;BME280;5404;42.656;23.336;2023-04-10T06:47:22;94897.28;;;10.58;100.00
10706;BME280;5404;42.656;23.336;2023-04-10T06:49:47;94901.25;;;10.61;100.00
10706;BME280;5404;42.656;23.336;2023-04-10T06:52:12;94908.56;;;10.69;100.00
10706;BME280;5404;42.656;23.336;2023-04-10T06:54:37;94904.88;;;10.65;100.00
10706;BME280;5404;42.656;23.336;2023-04-10T06:57:03;94906.19;;;10.68;100.00
10706;BME280;5404;42.656;23.336;2023-04-10T06:59:28;94908.84;;;10.68;100.00
10706;BME280;5404;42.656;23.336;2023-04-10T07:01:53;94902.59;;;10.58;100.00
10706;BME280;5404;42.656;23.336;2023-04-10T07:04:19;94911.56;;;10.49;100.00
10706;BME280;5404;42.656;23.336;2023-04-10T07:06:44;94910.47;;;10.50;100.00
10706;BME280;5404;42.656;23.336;2023-04-10T07:09:09;94909.28;;;10.56;100.00
10706;BME280;5404;42.656;23.336;2023-04-10T07:11:35;94916.59;;;10.50;100.00
10706;BME280;5404;42.656;23.336;2023-04-10T07:14:00;94907.34;;;10.62;100.00
10706;BME280;5404;42.656;23.336;2023-04-10T07:16:25;94910.50;;;10.64;100.00
10706;BME280;5404;42.656;23.336;2023-04-10T07:18:51;94902.19;;;10.51;100.00
10706;BME280;5404;42.656;23.336;2023-04-10T07:21:16;94909.81;;;10.58;100.00
10706;BME280;5404;42.656;23.336;2023-04-10T07:23:42;94906.56;;;10.61;100.00
10706;BME280;5404;42.656;23.336;2023-04-10T07:26:07;94904.69;;;10.62;100.00
10706;BME280;5404;42.656;23.336;2023-04-10T07:28:32;94909.28;;;10.56;100.00
10706;BME280;5404;42.656;23.336;2023-04-10T07:30:58;94916.38;;;10.47;100.00
10706;BME280;5404;42.656;23.336;2023-04-10T07:33:23;94915.59;;;10.46;100.00
10706;BME280;5404;42.656;23.336;2023-04-10T07:35:48;94917.03;;;10.39;100.00
10706;BME280;5404;42.656;23.336;2023-04-10T07:38:14;94912.03;;;10.51;100.00
10706;BME280;5404;42.656;23.336;2023-04-10T07:40:39;94912.69;;;10.62;100.00
10706;BME280;5404;42.656;23.336;2023-04-10T07:43:04;94914.28;;;10.63;100.00
10706;BME280;5404;42.656;23.336;2023-04-10T07:45:30;94916.34;;;10.66;100.00
10706;BME280;5404;42.656;23.336;2023-04-10T07:47:55;94917.22;;;10.61;100.00
10706;BME280;5404;42.656;23.336;2023-04-10T07:50:20;94918.66;;;10.86;100.00
10706;BME280;5404;42.656;23.336;2023-04-10T07:52:47;94913.06;;;11.01;100.00
10706;BME280;5404;42.656;23.336;2023-04-10T07:55:12;94912.03;;;11.29;100.00
10706;BME280;5404;42.656;23.336;2023-04-10T07:57:38;94914.00;;;11.50;100.00
10706;BME280;5404;42.656;23.336;2023-04-10T08:00:03;94903.56;;;11.67;100.00
10706;BME280;5404;42.656;23.336;2023-04-10T08:02:28;94909.38;;;11.69;100.00
10706;BME280;5404;42.656;23.336;2023-04-10T08:04:54;94906.63;;;11.75;100.00
10706;BME280;5404;42.656;23.336;2023-04-10T08:07:19;94905.19;;;11.63;100.00
10706;BME280;5404;42.656;23.336;2023-04-10T08:09:46;94903.34;;;11.50;100.00
10706;BME280;5404;42.656;23.336;2023-04-10T08:12:11;94906.88;;;11.46;100.00
10706;BME280;5404;42.656;23.336;2023-04-10T08:14:37;94897.59;;;11.43;100.00
10706;BME280;5404;42.656;23.336;2023-04-10T08:17:02;94912.41;;;11.22;100.00
10706;BME280;5404;42.656;23.336;2023-04-10T08:19:27;94913.47;;;11.08;100.00
10706;BME280;5404;42.656;23.336;2023-04-10T08:21:52;94914.78;;;11.10;100.00
10706;BME280;5404;42.656;23.336;2023-04-10T08:24:18;94903.72;;;11.17;100.00
10706;BME280;5404;42.656;23.336;2023-04-10T08:26:45;94912.22;;;11.32;100.00
10706;BME280;5404;42.656;23.336;2023-04-10T08:29:10;94906.28;;;11.49;100.00
10706;BME280;5404;42.656;23.336;2023-04-10T08:31:36;94900.16;;;11.62;100.00
10706;BME280;5404;42.656;23.336;2023-04-10T08:34:01;94906.13;;;11.73;100.00
10706;BME280;5404;42.656;23.336;2023-04-10T08:36:28;94906.63;;;11.75;100.00
10706;BME280;5404;42.656;23.336;2023-04-10T08:38:53;94904.31;;;11.82;100.00
10706;BME280;5404;42.656;23.336;2023-04-10T08:41:18;94904.69;;;11.89;100.00
10706;BME280;5404;42.656;23.336;2023-04-10T08:43:44;94901.84;;;11.71;100.00
10706;BME280;5404;42.656;23.336;2023-04-10T08:46:10;94909.38;;;11.83;100.00
10706;BME280;5404;42.656;23.336;2023-04-10T08:48:43;94902.72;;;11.94;100.00
10706;BME280;5404;42.656;23.336;2023-04-10T08:51:12;94900.34;;;11.93;100.00
10706;BME280;5404;42.656;23.336;2023-04-10T08:53:39;94904.31;;;11.95;100.00
10706;BME280;5404;42.656;23.336;2023-04-10T08:56:05;94892.97;;;12.12;100.00
10706;BME280;5404;42.656;23.336;2023-04-10T08:58:31;94888.31;;;12.17;100.00
10706;BME280;5404;42.656;23.336;2023-04-10T09:00:56;94896.22;;;12.22;100.00
10706;BME280;5404;42.656;23.336;2023-04-10T09:03:22;94884.66;;;12.13;100.00
10706;BME280;5404;42.656;23.336;2023-04-10T09:05:48;94883.78;;;12.04;100.00
10706;BME280;5404;42.656;23.336;2023-04-10T09:08:13;94882.72;;;12.05;100.00
10706;BME280;5404;42.656;23.336;2023-04-10T09:10:39;94883.56;;;12.14;100.00
10706;BME280;5404;42.656;23.336;2023-04-10T09:13:04;94878.22;;;12.14;100.00
10706;BME280;5404;42.656;23.336;2023-04-10T09:15:30;94875.19;;;12.07;100.00
10706;BME280;5404;42.656;23.336;2023-04-10T09:18:15;94886.28;;;12.01;100.00
10706;BME280;5404;42.656;23.336;2023-04-10T09:20:40;94877.19;;;12.02;100.00
10706;BME280;5404;42.656;23.336;2023-04-10T09:23:19;94876.69;;;12.00;100.00
10706;BME280;5404;42.656;23.336;2023-04-10T09:25:45;94879.38;;;12.00;100.00
10706;BME280;5404;42.656;23.336;2023-04-10T09:28:10;94873.22;;;11.99;100.00
10706;BME280;5404;42.656;23.336;2023-04-10T09:30:39;94877.50;;;12.00;100.00
10706;BME280;5404;42.656;23.336;2023-04-10T09:33:23;94872.69;;;11.75;100.00
10706;BME280;5404;42.656;23.336;2023-04-10T09:35:51;94876.66;;;11.50;100.00
10706;BME280;5404;42.656;23.336;2023-04-10T09:38:17;94874.28;;;11.62;100.00
10706;BME280;5404;42.656;23.336;2023-04-10T09:40:43;94875.34;;;11.75;100.00
10706;BME280;5404;42.656;23.336;2023-04-10T09:43:43;94870.41;;;11.55;100.00
10706;BME280;5404;42.656;23.336;2023-04-10T09:46:03;94876.66;;;11.50;100.00
10706;BME280;5404;42.656;23.336;2023-04-10T09:48:28;94873.88;;;11.55;100.00
10706;BME280;5404;42.656;23.336;2023-04-10T09:50:53;94876.16;;;11.62;100.00
10706;BME280;5404;42.656;23.336;2023-04-10T09:53:19;94867.44;;;11.56;100.00
10706;BME280;5404;42.656;23.336;2023-04-10T09:55:45;94868.94;;;11.62;100.00
10706;BME280;5404;42.656;23.336;2023-04-10T09:58:11;94866.34;;;11.57;100.00
10706;BME280;5404;42.656;23.336;2023-04-10T10:00:40;94866.94;;;11.54;100.00
10706;BME280;5404;42.656;23.336;2023-04-10T10:03:07;94866.28;;;11.76;100.00
10706;BME280;5404;42.656;23.336;2023-04-10T10:05:34;94866.69;;;12.05;100.00
10706;BME280;5404;42.656;23.336;2023-04-10T10:08:00;94860.75;;;12.30;100.00
10706;BME280;5404;42.656;23.336;2023-04-10T10:10:25;94846.97;;;12.37;100.00
10706;BME280;5404;42.656;23.336;2023-04-10T10:12:51;94844.19;;;12.20;100.00
10706;BME280;5404;42.656;23.336;2023-04-10T10:15:24;94850.38;;;12.07;100.00
10706;BME280;5404;42.656;23.336;2023-04-10T10:17:59;94838.00;;;12.11;100.00
10706;BME280;5404;42.656;23.336;2023-04-10T10:20:27;94842.84;;;12.09;100.00
10706;BME280;5404;42.656;23.336;2023-04-10T10:22:55;94833.97;;;12.00;100.00
10706;BME280;5404;42.656;23.336;2023-04-10T10:25:22;94832.34;;;11.63;100.00
10706;BME280;5404;42.656;23.336;2023-04-10T10:27:48;94833.94;;;11.78;100.00
10706;BME280;5404;42.656;23.336;2023-04-10T10:30:13;94831.78;;;12.02;100.00
10706;BME280;5404;42.656;23.336;2023-04-10T10:32:41;94823.66;;;12.29;100.00
10706;BME280;5404;42.656;23.336;2023-04-10T10:35:06;94767.91;;;11.69;100.00
10706;BME280;5404;42.656;23.336;2023-04-10T10:37:32;94820.56;;;12.13;100.00
10706;BME280;5404;42.656;23.336;2023-04-10T10:42:35;94811.25;;;12.55;100.00
10706;BME280;5404;42.656;23.336;2023-04-10T10:47:43;94808.31;;;12.65;100.00
10706;BME280;5404;42.656;23.336;2023-04-10T10:50:10;94809.53;;;12.81;100.00
10706;BME280;5404;42.656;23.336;2023-04-10T10:52:36;94796.72;;;13.00;100.00
10706;BME280;5404;42.656;23.336;2023-04-10T10:57:46;94796.50;;;13.27;100.00
10706;BME280;5404;42.656;23.336;2023-04-10T11:00:12;94791.50;;;13.43;100.00
10706;BME280;5404;42.656;23.336;2023-04-10T11:02:37;94728.47;;;13.20;100.00
10706;BME280;5404;42.656;23.336;2023-04-10T11:05:02;94787.13;;;14.24;100.00
10706;BME280;5404;42.656;23.336;2023-04-10T11:08:05;94771.16;;;15.07;95.77
10706;BME280;5404;42.656;23.336;2023-04-10T11:10:13;94761.94;;;15.96;86.36
10706;BME280;5404;42.656;23.336;2023-04-10T11:13:14;94765.28;;;16.46;82.13
10706;BME280;5404;42.656;23.336;2023-04-10T11:15:23;94763.47;;;16.71;77.43
10706;BME280;5404;42.656;23.336;2023-04-10T11:17:50;94761.63;;;16.51;75.75
10706;BME280;5404;42.656;23.336;2023-04-10T11:20:19;94759.75;;;16.10;75.28
10706;BME280;5404;42.656;23.336;2023-04-10T11:23:09;94758.53;;;15.66;77.31
10706;BME280;5404;42.656;23.336;2023-04-10T11:25:51;94761.03;;;15.13;77.63
10706;BME280;5404;42.656;23.336;2023-04-10T11:28:33;94754.72;;;14.71;78.76
10706;BME280;5404;42.656;23.336;2023-04-10T11:31:20;94759.88;;;14.30;82.94
10706;BME280;5404;42.656;23.336;2023-04-10T11:33:47;94746.50;;;13.53;92.59
10706;BME280;5404;42.656;23.336;2023-04-10T11:36:13;94755.34;;;12.67;100.00
10706;BME280;5404;42.656;23.336;2023-04-10T11:38:39;94762.66;;;12.00;100.00
10706;BME280;5404;42.656;23.336;2023-04-10T11:41:04;94756.38;;;11.60;100.00
10706;BME280;5404;42.656;23.336;2023-04-10T11:43:31;94759.44;;;11.54;100.00
10706;BME280;5404;42.656;23.336;2023-04-10T11:45:58;94755.06;;;11.71;100.00
10706;BME280;5404;42.656;23.336;2023-04-10T11:48:24;94753.75;;;12.05;100.00
10706;BME280;5404;42.656;23.336;2023-04-10T11:50:49;94757.06;;;12.32;100.00
10706;BME280;5404;42.656;23.336;2023-04-10T11:53:18;94757.06;;;12.63;100.00
10706;BME280;5404;42.656;23.336;2023-04-10T11:55:44;94748.69;;;12.95;100.00
10706;BME280;5404;42.656;23.336;2023-04-10T11:58:20;94751.00;;;13.27;100.00
10706;BME280;5404;42.656;23.336;2023-04-10T12:00:53;94744.22;;;13.30;100.00
10706;BME280;5404;42.656;23.336;2023-04-10T12:03:29;94746.13;;;13.21;100.00
10706;BME280;5404;42.656;23.336;2023-04-10T12:05:54;94743.28;;;13.17;100.00
10706;BME280;5404;42.656;23.336;2023-04-10T12:08:20;94736.50;;;13.20;100.00
10706;BME280;5404;42.656;23.336;2023-04-10T12:10:45;94739.63;;;13.05;100.00
10706;BME280;5404;42.656;23.336;2023-04-10T12:13:26;94739.19;;;12.80;100.00
10706;BME280;5404;42.656;23.336;2023-04-10T12:15:52;94743.06;;;12.66;100.00
10706;BME280;5404;42.656;23.336;2023-04-10T12:18:18;94735.69;;;12.71;100.00
10706;BME280;5404;42.656;23.336;2023-04-10T12:20:44;94749.69;;;12.68;100.00
10706;BME280;5404;42.656;23.336;2023-04-10T12:23:09;94764.41;;;12.27;100.00
10706;BME280;5404;42.656;23.336;2023-04-10T12:25:35;94774.56;;;11.94;100.00
10706;BME280;5404;42.656;23.336;2023-04-10T12:28:00;94778.59;;;11.56;100.00
10706;BME280;5404;42.656;23.336;2023-04-10T12:30:26;94782.72;;;11.26;100.00
10706;BME280;5404;42.656;23.336;2023-04-10T12:32:51;94781.44;;;11.24;100.00
10706;BME280;5404;42.656;23.336;2023-04-10T12:35:17;94792.72;;;11.07;100.00
10706;BME280;5404;42.656;23.336;2023-04-10T12:37:49;94800.63;;;10.39;100.00
10706;BME280;5404;42.656;23.336;2023-04-10T12:40:15;94800.06;;;9.92;100.00
10706;BME280;5404;42.656;23.336;2023-04-10T12:42:41;94803.59;;;9.87;100.00
10706;BME280;5404;42.656;23.336;2023-04-10T12:45:06;94809.63;;;9.93;100.00
10706;BME280;5404;42.656;23.336;2023-04-10T12:47:41;94805.09;;;10.12;100.00
10706;BME280;5404;42.656;23.336;2023-04-10T12:50:07;94795.50;;;10.29;100.00
10706;BME280;5404;42.656;23.336;2023-04-10T12:52:35;94780.44;;;10.38;100.00
10706;BME280;5404;42.656;23.336;2023-04-10T12:55:07;94778.19;;;10.59;100.00
10706;BME280;5404;42.656;23.336;2023-04-10T12:57:33;94774.63;;;10.77;100.00
10706;BME280;5404;42.656;23.336;2023-04-10T12:59:58;94775.03;;;10.84;100.00
10706;BME280;5404;42.656;23.336;2023-04-10T13:02:25;94771.78;;;11.14;100.00
10706;BME280;5404;42.656;23.336;2023-04-10T13:04:51;94762.84;;;11.32;100.00
10706;BME280;5404;42.656;23.336;2023-04-10T13:07:16;94758.34;;;11.68;100.00
10706;BME280;5404;42.656;23.336;2023-04-10T13:09:42;94766.53;;;11.94;100.00
10706;BME280;5404;42.656;23.336;2023-04-10T13:12:07;94757.41;;;11.87;100.00
10706;BME280;5404;42.656;23.336;2023-04-10T13:14:32;94753.38;;;11.98;100.00